Time;durP1;ratioP1;P1;durP2;ratioP2;P2;SDS_P1;SDS_P2;PMS_P1;PMS_P2;Temp;Humidity;BMP_temperature;BMP_pressure;BME280_temperature;BME280_humidity;BME280_pressure;Samples;Min_cycle;Max_cycle;Signal;HPM_P1;HPM_P2
2022/03/29 00:01:01;;;;;;;3.57;1.60;;;19.70;99.90;;;;;;5031266;28;20386;-88
2022/03/29 00:03:28;;;;;;;3.70;1.40;;;19.80;99.90;;;;;;5031634;28;20374;-93
2022/03/29 00:05:55;;;;;;;1.80;1.10;;;19.90;99.90;;;;;;5030510;28;20461;-93
2022/03/29 00:08:22;;;;;;;3.70;1.40;;;19.90;99.90;;;;;;5032982;28;20379;-92
2022/03/29 00:10:49;;;;;;;3.10;1.10;;;19.80;99.90;;;;;;5033370;28;20648;-88
2022/03/29 00:13:17;;;;;;;3.40;1.10;;;19.80;99.90;;;;;;5033371;28;20386;-92
2022/03/29 00:15:44;;;;;;;3.17;1.25;;;19.80;99.90;;;;;;5037999;28;20971;-92
2022/03/29 00:18:11;;;;;;;2.83;1.00;;;19.90;99.90;;;;;;5033134;28;20433;-92
2022/03/29 00:20:38;;;;;;;2.42;0.70;;;20.00;99.90;;;;;;5032723;28;20393;-91
2022/03/29 00:23:06;;;;;;;3.83;1.00;;;19.90;99.90;;;;;;5032968;28;20444;-91
2022/03/29 00:25:33;;;;;;;4.60;1.33;;;19.80;99.90;;;;;;5037219;28;20385;-86
2022/03/29 00:28:01;;;;;;;1.92;0.95;;;20.00;99.90;;;;;;5037111;28;20369;-91
2022/03/29 00:30:28;;;;;;;2.08;1.00;;;19.90;99.90;;;;;;5033304;28;20409;-91
2022/03/29 00:32:55;;;;;;;2.50;1.00;;;20.00;99.90;;;;;;5031501;28;20408;-92
2022/03/29 00:35:25;;;;;;;2.92;0.90;;;20.00;99.90;;;;;;5032380;28;20979;-87
2022/03/29 00:37:53;;;;;;;2.50;1.10;;;20.00;99.90;;;;;;5035981;28;20710;-90
2022/03/29 00:40:21;;;;;;;2.70;0.90;;;20.10;99.90;;;;;;5048895;28;20407;-90
2022/03/29 00:42:48;;;;;;;1.45;0.70;;;20.10;99.90;;;;;;5040382;28;20381;-91
2022/03/29 00:45:15;;;;;;;3.35;0.80;;;20.00;99.90;;;;;;5030138;28;20413;-92
2022/03/29 00:47:42;;;;;;;1.50;0.70;;;20.00;99.90;;;;;;5013553;28;20369;-85
2022/03/29 00:50:10;;;;;;;1.60;0.70;;;20.00;99.90;;;;;;5030559;28;20404;-92
2022/03/29 00:52:39;;;;;;;1.65;0.70;;;20.00;99.90;;;;;;5032901;28;20716;-91
2022/03/29 00:55:07;;;;;;;2.67;0.77;;;20.00;99.90;;;;;;5033096;28;20845;-88
2022/03/29 00:57:34;;;;;;;2.13;0.60;;;20.00;99.90;;;;;;5029249;28;20905;-88
2022/03/29 01:00:02;;;;;;;3.10;0.80;;;19.90;99.90;;;;;;5029535;28;20766;-90
2022/03/29 01:02:29;;;;;;;2.00;0.90;;;20.10;99.90;;;;;;5029046;28;20381;-92
2022/03/29 01:04:56;;;;;;;2.45;0.90;;;20.20;99.90;;;;;;5029188;28;20374;-90
2022/03/29 01:07:24;;;;;;;1.70;0.80;;;20.20;99.90;;;;;;5029327;28;20729;-91
2022/03/29 01:09:51;;;;;;;2.60;0.80;;;20.30;99.90;;;;;;5031791;28;20479;-87
2022/03/29 01:12:18;;;;;;;2.63;0.90;;;20.30;99.90;;;;;;5032705;28;20417;-90
2022/03/29 01:14:47;;;;;;;1.10;0.70;;;20.40;99.90;;;;;;5029201;28;20483;-86
2022/03/29 01:20:02;;;;;;;3.05;0.90;;;20.30;99.90;;;;;;5029146;28;20364;-86
2022/03/29 01:22:29;;;;;;;1.88;0.85;;;20.30;99.90;;;;;;5029153;28;20389;-90
2022/03/29 01:24:57;;;;;;;3.20;1.10;;;20.40;99.90;;;;;;5028914;28;20381;-90
2022/03/29 01:27:24;;;;;;;5.70;1.65;;;20.50;99.90;;;;;;5029093;28;20480;-89
2022/03/29 01:29:59;;;;;;;10.00;1.92;;;20.40;99.90;;;;;;5028434;28;20727;-88
2022/03/29 01:32:31;;;;;;;6.72;1.77;;;20.40;99.90;;;;;;5028769;28;20738;-87
2022/03/29 01:34:58;;;;;;;8.70;2.15;;;20.40;99.90;;;;;;5028978;28;20386;-91
2022/03/29 01:37:25;;;;;;;8.48;2.13;;;20.40;99.90;;;;;;5028406;28;20389;-91
2022/03/29 01:39:53;;;;;;;5.63;1.77;;;20.50;99.90;;;;;;5028539;28;20369;-89
2022/03/29 01:42:20;;;;;;;9.32;1.83;;;20.60;99.90;;;;;;5028280;28;20428;-89
2022/03/29 01:44:47;;;;;;;10.13;1.95;;;20.60;99.90;;;;;;5028871;28;20428;-89
2022/03/29 01:47:18;;;;;;;8.77;1.65;;;20.60;99.90;;;;;;5028392;28;20452;-89
2022/03/29 01:49:45;;;;;;;5.57;1.73;;;20.50;99.90;;;;;;5010715;28;20381;-90
2022/03/29 01:52:12;;;;;;;6.70;1.57;;;20.50;99.90;;;;;;5028316;28;20373;-89
2022/03/29 01:54:39;;;;;;;7.35;1.60;;;20.50;99.90;;;;;;5029420;28;20389;-86
2022/03/29 01:57:06;;;;;;;4.38;1.60;;;20.60;99.90;;;;;;5032233;28;20388;-90
2022/03/29 02:02:18;;;;;;;3.85;1.10;;;20.70;99.90;;;;;;5032052;28;20465;-88
2022/03/29 02:04:45;;;;;;;1.98;0.70;;;20.70;99.90;;;;;;5032061;28;20397;-90
2022/03/29 02:07:12;;;;;;;1.98;0.75;;;20.60;99.90;;;;;;5032246;28;20377;-90
2022/03/29 02:09:39;;;;;;;1.10;0.40;;;20.50;99.90;;;;;;5032125;28;20460;-91
2022/03/29 02:12:07;;;;;;;1.23;0.40;;;20.50;99.90;;;;;;5032089;28;20454;-89
2022/03/29 02:14:34;;;;;;;1.30;0.60;;;20.50;99.90;;;;;;5032015;28;20876;-91
2022/03/29 02:17:02;;;;;;;0.77;0.50;;;20.50;99.90;;;;;;5031995;28;20392;-89
2022/03/29 02:19:29;;;;;;;1.30;0.60;;;20.50;99.90;;;;;;5031891;28;20373;-90
2022/03/29 02:21:56;;;;;;;1.80;0.50;;;20.50;99.90;;;;;;5031944;28;20378;-89
2022/03/29 02:24:23;;;;;;;1.65;0.40;;;20.70;99.90;;;;;;5013953;28;20377;-90
2022/03/29 02:26:49;;;;;;;1.30;0.40;;;20.70;99.90;;;;;;5031709;28;20382;-90
2022/03/29 02:29:16;;;;;;;0.80;0.50;;;20.70;99.90;;;;;;5031668;28;20367;-91
2022/03/29 02:31:43;;;;;;;1.70;0.43;;;20.70;99.90;;;;;;5032072;28;20715;-89
2022/03/29 02:34:10;;;;;;;1.00;0.60;;;20.70;99.90;;;;;;5032216;28;20373;-91
2022/03/29 02:36:37;;;;;;;0.93;0.60;;;20.80;99.90;;;;;;5014046;28;20480;-91
2022/03/29 02:39:04;;;;;;;1.42;0.60;;;21.00;99.90;;;;;;5013869;28;20473;-92
2022/03/29 02:41:31;;;;;;;0.93;0.40;;;21.00;99.90;;;;;;5032607;28;20369;-91
2022/03/29 02:43:58;;;;;;;1.33;0.40;;;21.10;99.90;;;;;;5017792;28;20410;-91
2022/03/29 02:46:25;;;;;;;1.70;0.50;;;21.10;99.90;;;;;;5014577;28;20381;-90
2022/03/29 02:48:52;;;;;;;1.48;0.50;;;21.20;99.90;;;;;;5013952;28;20897;-89
2022/03/29 02:51:20;;;;;;;1.65;0.50;;;21.40;99.90;;;;;;5032112;28;20431;-92
2022/03/29 02:53:47;;;;;;;1.27;0.50;;;21.80;99.90;;;;;;5032410;28;20381;-94
2022/03/29 02:56:14;;;;;;;0.90;0.38;;;21.90;99.90;;;;;;5014865;28;20428;-95
2022/03/29 02:58:41;;;;;;;1.13;0.50;;;22.10;99.90;;;;;;5016439;28;20851;-94
2022/03/29 03:01:08;;;;;;;0.80;0.40;;;22.00;99.90;;;;;;5016568;28;20392;-95
2022/03/29 03:03:35;;;;;;;2.17;0.40;;;22.10;99.90;;;;;;5035284;28;20376;-92
2022/03/29 03:06:03;;;;;;;1.00;0.70;;;22.20;99.90;;;;;;5047246;28;20442;-88
2022/03/29 03:08:32;;;;;;;0.85;0.47;;;22.10;99.90;;;;;;5018569;28;20384;-96
2022/03/29 03:10:59;;;;;;;3.93;0.70;;;22.10;99.90;;;;;;5035410;28;20432;-94
2022/03/29 03:13:26;;;;;;;1.52;0.50;;;22.00;99.90;;;;;;5016551;28;20381;-96
2022/03/29 03:15:53;;;;;;;1.40;0.45;;;22.00;99.90;;;;;;5019520;28;20405;-94
2022/03/29 03:18:20;;;;;;;0.93;0.40;;;22.00;99.90;;;;;;5037875;28;20396;-95
2022/03/29 03:20:47;;;;;;;0.65;0.40;;;21.90;99.90;;;;;;5041130;28;20389;-94
2022/03/29 03:23:14;;;;;;;4.80;1.00;;;21.90;99.90;;;;;;5041122;28;20373;-88
2022/03/29 03:25:41;;;;;;;4.73;0.80;;;21.80;99.90;;;;;;5016528;28;20787;-88
2022/03/29 03:28:08;;;;;;;0.90;0.40;;;21.80;99.90;;;;;;5037198;28;20480;-95
2022/03/29 03:30:35;;;;;;;3.92;0.60;;;21.70;99.90;;;;;;5036057;28;20393;-93
2022/03/29 03:33:02;;;;;;;21.25;2.90;;;21.70;99.90;;;;;;5018113;28;20366;-94
2022/03/29 03:35:29;;;;;;;14.93;1.73;;;21.60;99.90;;;;;;5034650;28;20450;-96
2022/03/29 03:37:56;;;;;;;19.67;2.27;;;21.50;99.90;;;;;;5039520;28;20382;-89
2022/03/29 03:40:23;;;;;;;16.60;2.30;;;21.50;99.90;;;;;;5018375;28;20745;-92
2022/03/29 03:42:50;;;;;;;23.52;3.20;;;21.50;99.90;;;;;;5015114;28;20477;-94
2022/03/29 03:45:17;;;;;;;27.95;3.55;;;21.60;99.90;;;;;;5034604;28;20715;-95
2022/03/29 03:47:46;;;;;;;22.95;2.55;;;21.60;99.90;;;;;;5015936;28;20394;-95
2022/03/29 03:50:13;;;;;;;36.83;4.77;;;21.60;99.90;;;;;;5015094;28;20471;-94
2022/03/29 03:52:41;;;;;;;21.37;3.40;;;21.70;99.90;;;;;;5033200;28;20859;-95
2022/03/29 03:55:08;;;;;;;6.70;1.30;;;21.90;99.90;;;;;;5033634;28;20421;-92
2022/03/29 03:57:36;;;;;;;3.67;0.70;;;21.90;99.90;;;;;;5031340;28;20414;-92
2022/03/29 04:00:05;;;;;;;2.88;0.70;;;21.60;99.90;;;;;;5012554;28;20475;-90
2022/03/29 04:02:32;;;;;;;1.45;0.60;;;21.40;99.90;;;;;;5012693;28;20773;-92
2022/03/29 04:04:59;;;;;;;1.42;0.60;;;21.30;99.90;;;;;;5012471;28;20448;-92
2022/03/29 04:07:26;;;;;;;2.35;0.68;;;21.20;99.90;;;;;;5030238;28;20409;-88
2022/03/29 04:09:53;;;;;;;2.00;0.60;;;21.20;99.90;;;;;;5030301;28;20370;-87
2022/03/29 04:12:20;;;;;;;1.05;0.50;;;21.30;99.90;;;;;;5031387;28;20382;-87
2022/03/29 04:14:47;;;;;;;1.45;0.50;;;21.30;99.90;;;;;;5034517;28;20415;-90
2022/03/29 04:17:14;;;;;;;1.30;0.40;;;21.20;99.90;;;;;;5040074;28;20392;-89
2022/03/29 04:19:41;;;;;;;1.20;0.50;;;21.20;99.90;;;;;;5049065;28;20380;-88
2022/03/29 04:22:08;;;;;;;1.00;0.40;;;21.00;99.90;;;;;;5037464;28;20382;-92
2022/03/29 04:24:35;;;;;;;2.17;0.53;;;20.90;99.90;;;;;;5030334;28;20424;-93
2022/03/29 04:27:01;;;;;;;0.63;0.50;;;21.00;99.90;;;;;;5030212;28;20377;-92
2022/03/29 04:29:29;;;;;;;1.10;0.57;;;21.20;99.90;;;;;;5029688;28;20381;-92
2022/03/29 04:31:56;;;;;;;1.27;0.50;;;21.30;99.90;;;;;;5011829;28;20891;-92
2022/03/29 04:34:23;;;;;;;1.00;0.50;;;21.30;99.90;;;;;;5029655;28;20461;-91
2022/03/29 04:36:50;;;;;;;2.00;0.60;;;21.30;99.90;;;;;;5029653;28;20413;-90
2022/03/29 04:39:17;;;;;;;0.70;0.50;;;21.20;99.90;;;;;;5029638;28;20387;-92
2022/03/29 04:41:44;;;;;;;1.57;0.77;;;21.20;99.90;;;;;;5029436;28;20872;-89
2022/03/29 04:44:11;;;;;;;2.10;0.75;;;21.20;99.90;;;;;;5028963;28;20416;-90
2022/03/29 04:46:38;;;;;;;1.42;0.70;;;21.10;99.90;;;;;;5029097;28;20377;-89
2022/03/29 04:49:05;;;;;;;1.83;0.77;;;21.10;99.90;;;;;;5011393;28;20411;-87
2022/03/29 04:51:35;;;;;;;3.53;0.80;;;21.10;99.90;;;;;;5028765;28;20431;-88
2022/03/29 04:54:03;;;;;;;1.38;0.80;;;21.10;99.90;;;;;;5028808;28;20892;-88
2022/03/29 04:56:30;;;;;;;2.13;1.00;;;21.10;99.90;;;;;;5028705;28;20930;-89
2022/03/29 04:58:57;;;;;;;2.63;1.00;;;21.20;99.90;;;;;;5028957;28;20376;-87
2022/03/29 05:01:24;;;;;;;1.20;0.88;;;21.20;99.90;;;;;;5028832;28;20384;-85
2022/03/29 05:03:51;;;;;;;1.52;0.80;;;21.10;99.90;;;;;;5031106;28;20470;-87
2022/03/29 05:06:18;;;;;;;1.98;0.80;;;21.00;99.90;;;;;;5011920;28;20395;-87
2022/03/29 05:08:45;;;;;;;3.92;1.15;;;21.00;99.90;;;;;;5028959;28;20387;-84
2022/03/29 05:11:12;;;;;;;5.13;2.50;;;21.00;99.90;;;;;;5043889;28;20373;-85
2022/03/29 05:13:39;;;;;;;2.22;0.95;;;21.00;99.90;;;;;;5028643;28;20373;-87
2022/03/29 05:16:06;;;;;;;2.30;1.20;;;20.90;99.90;;;;;;5028365;28;20455;-87
2022/03/29 05:18:33;;;;;;;2.75;0.90;;;20.80;99.90;;;;;;5010780;28;20385;-85
2022/03/29 05:21:00;;;;;;;6.97;5.57;;;20.90;99.90;;;;;;5010776;28;20386;-86
2022/03/29 05:23:27;;;;;;;5.40;2.70;;;20.90;99.90;;;;;;5028684;28;20412;-87
2022/03/29 05:25:54;;;;;;;2.28;1.50;;;20.90;99.90;;;;;;5028511;28;20422;-87
2022/03/29 05:28:21;;;;;;;2.30;1.05;;;20.90;99.90;;;;;;5028365;28;20397;-87
2022/03/29 05:30:49;;;;;;;3.58;1.40;;;21.00;99.90;;;;;;5032664;28;20381;-87
2022/03/29 05:33:18;;;;;;;1.98;1.10;;;20.90;99.90;;;;;;5014693;28;20385;-89
2022/03/29 05:35:45;;;;;;;2.35;1.10;;;21.00;99.90;;;;;;5032381;28;20398;-84
2022/03/29 05:38:12;;;;;;;3.55;1.10;;;20.90;99.90;;;;;;5032178;28;20378;-89
2022/03/29 05:40:39;;;;;;;2.50;1.17;;;20.90;99.90;;;;;;5032432;28;20504;-88
2022/03/29 05:43:11;;;;;;;3.25;1.10;;;20.90;99.90;;;;;;5030015;28;20429;-85
2022/03/29 05:45:42;;;;;;;1.15;1.05;;;21.00;99.90;;;;;;5047888;28;20373;-86
2022/03/29 05:50:55;;;;;;;2.67;1.20;;;21.00;99.90;;;;;;5032534;28;20507;-89
2022/03/29 05:53:23;;;;;;;3.10;1.33;;;21.00;99.90;;;;;;5014731;28;20401;-89
2022/03/29 05:55:50;;;;;;;2.10;1.10;;;21.10;99.90;;;;;;5032263;28;20499;-91
2022/03/29 05:58:17;;;;;;;2.05;1.50;;;21.10;99.90;;;;;;5032814;28;20381;-88
2022/03/29 06:00:45;;;;;;;2.83;1.37;;;21.10;99.90;;;;;;5032119;28;20426;-86
2022/03/29 06:03:12;;;;;;;2.33;1.30;;;21.20;99.90;;;;;;5032170;28;20768;-89
2022/03/29 06:05:42;;;;;;;1.70;1.00;;;21.20;99.90;;;;;;5033509;28;20749;-90
2022/03/29 06:08:10;;;;;;;1.80;1.00;;;21.20;99.90;;;;;;5035221;28;20420;-90
2022/03/29 06:10:37;;;;;;;2.55;1.30;;;21.20;99.90;;;;;;5032433;28;20370;-90
2022/03/29 06:13:04;;;;;;;2.20;1.20;;;21.30;99.90;;;;;;5032334;28;20849;-89
2022/03/29 06:15:31;;;;;;;2.90;1.30;;;21.30;99.90;;;;;;5031994;28;20817;-89
2022/03/29 06:17:58;;;;;;;3.80;1.50;;;21.40;99.90;;;;;;5034416;28;20778;-87
2022/03/29 06:20:25;;;;;;;2.20;1.30;;;21.40;99.90;;;;;;5043937;28;20345;-85
2022/03/29 06:22:52;;;;;;;1.33;1.23;;;21.50;99.90;;;;;;5039271;28;20507;-90
2022/03/29 06:25:19;;;;;;;2.17;1.20;;;21.50;99.90;;;;;;5031997;28;20882;-89
2022/03/29 06:27:46;;;;;;;1.70;0.80;;;21.40;99.90;;;;;;5014177;28;20764;-90
2022/03/29 06:30:16;;;;;;;1.73;0.90;;;21.40;99.90;;;;;;5033260;28;20447;-84
2022/03/29 06:32:50;;;;;;;1.98;1.20;;;21.40;99.90;;;;;;5033097;28;20384;-93
2022/03/29 06:35:22;;;;;;;1.97;1.10;;;21.40;99.90;;;;;;5032084;28;20455;-87
2022/03/29 06:37:55;;;;;;;1.90;0.90;;;21.40;99.90;;;;;;5032834;28;20377;-91
2022/03/29 06:40:23;;;;;;;2.05;1.20;;;21.50;99.90;;;;;;5031686;28;20377;-91
2022/03/29 06:42:51;;;;;;;1.88;1.13;;;21.40;99.90;;;;;;5031507;28;20389;-87
2022/03/29 06:45:19;;;;;;;2.42;1.10;;;21.30;99.90;;;;;;5032945;28;20382;-85
2022/03/29 06:47:46;;;;;;;2.22;1.10;;;21.30;99.90;;;;;;5032689;28;20785;-91
2022/03/29 06:50:13;;;;;;;2.10;1.10;;;21.30;99.90;;;;;;5032981;28;20378;-89
2022/03/29 06:52:42;;;;;;;0.97;0.80;;;21.30;99.90;;;;;;5033002;28;20369;-96
2022/03/29 06:55:11;;;;;;;1.20;1.00;;;21.20;99.90;;;;;;5033787;28;20480;-85
2022/03/29 06:57:38;;;;;;;1.63;1.00;;;21.20;99.90;;;;;;5032033;28;20892;-91
2022/03/29 07:00:09;;;;;;;1.90;1.10;;;21.10;99.90;;;;;;5013084;28;20385;-90
2022/03/29 07:02:37;;;;;;;1.27;1.10;;;21.00;99.90;;;;;;5030349;28;20446;-83
2022/03/29 07:05:04;;;;;;;1.52;1.05;;;21.00;99.90;;;;;;5030699;28;20409;-84
2022/03/29 07:07:31;;;;;;;2.93;1.03;;;21.00;99.90;;;;;;5030844;28;20857;-92
2022/03/29 07:12:48;;;;;;;5.85;1.30;;;21.10;99.90;;;;;;5032752;28;20935;-84
2022/03/29 07:15:16;;;;;;;1.30;1.20;;;21.10;99.90;;;;;;5031932;28;20406;-86
2022/03/29 07:17:43;;;;;;;1.40;1.10;;;21.10;99.90;;;;;;5031314;28;20377;-94
2022/03/29 07:20:12;;;;;;;2.30;1.20;;;21.00;99.90;;;;;;5013107;28;20385;-83
2022/03/29 07:22:39;;;;;;;2.55;1.20;;;21.00;99.90;;;;;;5031272;28;20441;-87
2022/03/29 07:25:07;;;;;;;2.40;1.40;;;20.90;99.90;;;;;;5031548;28;20950;-83
2022/03/29 07:27:34;;;;;;;3.03;1.40;;;21.00;99.90;;;;;;5032376;28;20405;-90
2022/03/29 07:30:03;;;;;;;2.78;1.45;;;20.90;99.90;;;;;;5031739;28;20380;-83
2022/03/29 07:32:30;;;;;;;3.10;1.60;;;20.90;99.90;;;;;;5031092;28;20373;-92
2022/03/29 07:34:59;;;;;;;2.95;1.70;;;20.90;99.90;;;;;;5032010;28;20446;-83
2022/03/29 07:37:26;;;;;;;4.25;2.00;;;20.90;99.90;;;;;;5033064;28;20381;-85
2022/03/29 07:39:53;;;;;;;3.92;2.13;;;20.90;99.90;;;;;;5030938;28;20365;-83
2022/03/29 07:42:22;;;;;;;4.82;2.92;;;20.80;99.90;;;;;;5030508;28;20447;-87
2022/03/29 07:44:50;;;;;;;2.60;2.20;;;20.80;99.90;;;;;;5030609;28;20435;-88
2022/03/29 07:47:19;;;;;;;4.32;2.50;;;20.80;99.90;;;;;;5030443;28;20381;-86
2022/03/29 07:49:46;;;;;;;5.40;4.40;;;20.70;99.90;;;;;;5031205;28;20384;-82
2022/03/29 07:52:19;;;;;;;9.35;7.38;;;20.70;99.90;;;;;;5031211;28;20435;-89
2022/03/29 07:54:46;;;;;;;10.23;7.00;;;20.70;99.90;;;;;;5031120;28;20878;-82
2022/03/29 07:57:13;;;;;;;15.27;11.50;;;20.70;99.90;;;;;;5037684;28;20449;-82
2022/03/29 07:59:40;;;;;;;17.67;13.27;;;20.70;99.90;;;;;;5035808;28;20366;-83
2022/03/29 08:02:10;;;;;;;14.95;12.15;;;20.70;99.90;;;;;;5029502;28;21333;-86
2022/03/29 08:04:37;;;;;;;15.25;11.70;;;20.70;99.90;;;;;;5030014;28;20472;-83
2022/03/29 08:07:04;;;;;;;10.02;8.50;;;20.60;99.90;;;;;;5029746;28;20441;-93
2022/03/29 08:09:32;;;;;;;10.05;8.60;;;20.70;99.90;;;;;;5029790;28;20409;-93
2022/03/29 08:11:59;;;;;;;7.00;5.78;;;20.70;99.90;;;;;;5011916;28;20436;-87
2022/03/29 08:14:26;;;;;;;6.75;4.53;;;20.60;99.90;;;;;;5029983;28;20919;-84
2022/03/29 08:16:55;;;;;;;7.72;4.40;;;20.70;99.90;;;;;;5032989;28;20392;-82
2022/03/29 08:19:23;;;;;;;5.80;3.67;;;20.70;99.90;;;;;;5029872;28;20376;-89
2022/03/29 08:21:50;;;;;;;7.10;6.20;;;20.60;99.90;;;;;;5029613;28;20389;-94
2022/03/29 08:24:26;;;;;;;7.95;7.15;;;20.70;99.90;;;;;;5029805;28;20427;-82
2022/03/29 08:26:55;;;;;;;6.60;5.20;;;20.60;99.90;;;;;;5032419;28;20378;-90
2022/03/29 08:29:22;;;;;;;7.55;4.70;;;20.60;99.90;;;;;;5030104;28;20377;-85
2022/03/29 08:31:52;;;;;;;5.10;4.60;;;20.60;99.90;;;;;;5030874;28;20370;-85
2022/03/29 08:34:19;;;;;;;5.60;3.83;;;20.60;99.90;;;;;;5031783;28;20432;-90
2022/03/29 08:37:06;;;;;;;5.60;2.50;;;20.70;99.90;;;;;;5031970;28;20437;-84
2022/03/29 08:39:33;;;;;;;4.10;1.25;;;20.70;99.90;;;;;;5030776;28;20366;-90
2022/03/29 08:42:13;;;;;;;6.63;1.30;;;20.40;99.90;;;;;;5031233;28;20389;-92
2022/03/29 08:44:58;;;;;;;5.15;1.60;;;20.20;99.90;;;;;;5042219;28;20436;-93
2022/03/29 08:47:26;;;;;;;15.35;2.60;;;20.00;99.90;;;;;;5031146;28;20785;-88
2022/03/29 08:49:53;;;;;;;13.73;2.90;;;19.80;99.90;;;;;;5031101;28;20884;-82
2022/03/29 08:52:21;;;;;;;20.10;2.90;;;19.60;99.90;;;;;;5046327;28;20472;-84
2022/03/29 08:54:49;;;;;;;19.00;2.80;;;19.50;99.90;;;;;;5030109;28;20401;-85
2022/03/29 08:57:16;;;;;;;15.13;3.17;;;19.30;99.90;;;;;;5032398;28;20392;-86
2022/03/29 08:59:43;;;;;;;17.35;3.03;;;19.10;99.90;;;;;;5012640;28;20374;-85
2022/03/29 09:02:18;;;;;;;17.40;3.10;;;19.10;99.90;;;;;;5030037;28;20385;-91
2022/03/29 09:05:05;;;;;;;16.73;3.45;;;19.00;99.90;;;;;;5029228;28;20377;-87
2022/03/29 09:07:50;;;;;;;16.70;3.03;;;19.00;99.90;;;;;;5029918;28;20378;-84
2022/03/29 09:10:19;;;;;;;13.60;2.87;;;19.00;99.90;;;;;;5030010;28;20416;-83
2022/03/29 09:12:47;;;;;;;16.50;2.90;;;19.00;99.90;;;;;;5030016;28;20373;-90
2022/03/29 09:15:14;;;;;;;13.07;2.70;;;19.00;99.90;;;;;;5029363;28;20389;-84
2022/03/29 09:17:46;;;;;;;11.70;2.70;;;19.00;99.90;;;;;;5029789;28;20452;-84
2022/03/29 09:20:24;;;;;;;10.60;2.10;;;19.00;99.90;;;;;;5011644;28;20377;-84
2022/03/29 09:22:55;;;;;;;9.98;2.35;;;19.00;99.90;;;;;;5029998;28;20888;-84
2022/03/29 09:25:35;;;;;;;13.75;2.60;;;19.00;99.90;;;;;;5029534;28;20857;-91
2022/03/29 09:28:12;;;;;;;12.32;2.70;;;19.00;99.90;;;;;;5029601;28;20415;-90
2022/03/29 09:30:46;;;;;;;13.35;2.80;;;18.90;99.90;;;;;;5029638;28;20369;-85
2022/03/29 09:33:22;;;;;;;9.82;2.10;;;19.00;99.90;;;;;;5030295;28;20419;-94
2022/03/29 09:35:59;;;;;;;12.65;2.55;;;19.00;99.90;;;;;;5029704;28;20407;-92
2022/03/29 09:38:34;;;;;;;11.07;2.80;;;18.80;99.90;;;;;;5030030;28;20373;-92
2022/03/29 09:41:03;;;;;;;11.73;3.10;;;18.90;99.90;;;;;;5029623;28;20373;-85
2022/03/29 09:43:31;;;;;;;11.27;3.40;;;18.90;99.90;;;;;;5029523;28;20417;-93
2022/03/29 09:46:03;;;;;;;15.95;3.60;;;18.90;99.90;;;;;;5030522;28;20385;-88
2022/03/29 09:48:34;;;;;;;10.45;3.65;;;19.00;99.90;;;;;;5030821;28;20855;-92
2022/03/29 09:51:07;;;;;;;13.40;3.10;;;19.00;99.90;;;;;;5030960;28;20719;-92
2022/03/29 09:53:38;;;;;;;9.13;3.35;;;19.00;99.90;;;;;;5031597;28;20369;-92
2022/03/29 09:56:10;;;;;;;8.55;3.03;;;19.10;99.90;;;;;;5031499;28;20416;-91
2022/03/29 09:58:38;;;;;;;8.60;3.10;;;19.10;99.90;;;;;;5029931;28;20845;-89
2022/03/29 10:01:06;;;;;;;10.00;3.20;;;19.10;99.90;;;;;;5030758;28;20381;-91
2022/03/29 10:03:36;;;;;;;10.07;3.40;;;19.10;99.90;;;;;;5014731;28;20378;-90
2022/03/29 10:06:06;;;;;;;8.40;3.03;;;19.20;99.90;;;;;;5030333;28;20854;-89
2022/03/29 10:11:23;;;;;;;14.25;6.32;;;19.20;99.90;;;;;;5031249;28;20875;-86
2022/03/29 10:13:50;;;;;;;11.18;5.53;;;19.20;99.90;;;;;;5030727;28;20373;-90
2022/03/29 10:16:18;;;;;;;14.02;5.28;;;19.20;99.90;;;;;;5032269;28;20405;-86
2022/03/29 10:18:46;;;;;;;12.02;4.68;;;19.20;99.90;;;;;;5033502;28;20385;-92
2022/03/29 10:21:15;;;;;;;11.60;4.45;;;19.20;99.90;;;;;;5032544;28;20378;-88
2022/03/29 10:23:45;;;;;;;11.13;4.43;;;19.20;99.90;;;;;;5033435;28;20468;-92
2022/03/29 10:26:18;;;;;;;17.17;8.50;;;19.20;99.90;;;;;;5033100;28;20470;-91
2022/03/29 10:28:49;;;;;;;9.90;3.95;;;19.20;99.90;;;;;;5014730;28;20384;-90
2022/03/29 10:31:39;;;;;;;8.43;3.45;;;19.30;99.90;;;;;;5032255;28;20374;-86
2022/03/29 10:34:24;;;;;;;11.30;3.85;;;19.40;99.90;;;;;;5032488;28;20458;-94
2022/03/29 10:37:32;;;;;;;11.65;4.20;;;19.30;99.90;;;;;;5033513;28;20424;-92
2022/03/29 10:40:05;;;;;;;11.33;4.27;;;19.30;99.90;;;;;;4956014;28;20405;-92
2022/03/29 10:42:41;;;;;;;10.85;4.40;;;19.30;99.90;;;;;;4971745;28;20398;-91
2022/03/29 10:45:21;;;;;;;15.82;4.70;;;19.30;99.90;;;;;;4972723;28;20486;-89
2022/03/29 10:48:02;;;;;;;14.15;5.10;;;19.30;99.90;;;;;;4972910;28;20502;-94
2022/03/29 10:50:57;;;;;;;13.00;4.07;;;19.30;99.90;;;;;;4972089;28;20386;-92
2022/03/29 10:53:33;;;;;;;11.23;4.20;;;19.30;99.90;;;;;;4971700;28;20374;-89
2022/03/29 10:56:22;;;;;;;12.40;4.40;;;19.20;99.90;;;;;;4972798;28;20410;-93
2022/03/29 10:59:05;;;;;;;13.18;5.63;;;19.10;99.90;;;;;;4972264;28;20414;-92
2022/03/29 11:01:37;;;;;;;19.10;9.93;;;19.10;99.90;;;;;;4971123;28;20855;-85
2022/03/29 11:04:07;;;;;;;19.20;10.70;;;19.00;99.90;;;;;;4971947;28;20482;-92
2022/03/29 11:06:36;;;;;;;21.52;11.43;;;19.00;99.90;;;;;;4955541;28;20370;-91
2022/03/29 11:09:15;;;;;;;22.48;10.38;;;19.00;99.90;;;;;;4971793;28;20942;-93
2022/03/29 11:11:48;;;;;;;12.35;5.60;;;19.00;99.90;;;;;;5028933;28;20374;-92
2022/03/29 11:14:39;;;;;;;12.07;5.70;;;19.00;99.90;;;;;;5038854;28;20408;-91
2022/03/29 11:17:11;;;;;;;18.17;6.68;;;19.00;99.90;;;;;;5042479;28;20451;-89
2022/03/29 11:19:50;;;;;;;22.30;7.88;;;19.00;99.90;;;;;;5031607;28;20765;-83
2022/03/29 11:22:42;;;;;;;20.10;9.30;;;19.00;99.90;;;;;;5031800;28;20408;-88
2022/03/29 11:25:13;;;;;;;22.50;8.40;;;19.00;99.90;;;;;;5013601;28;20440;-90
2022/03/29 11:27:41;;;;;;;13.32;7.55;;;19.00;99.90;;;;;;5030928;28;20378;-85
2022/03/29 11:30:10;;;;;;;17.75;7.90;;;19.00;99.90;;;;;;5031272;28;20409;-84
2022/03/29 11:32:41;;;;;;;15.00;7.40;;;19.00;99.90;;;;;;5031933;28;20404;-84
2022/03/29 11:35:12;;;;;;;15.83;7.53;;;19.00;99.90;;;;;;5038819;28;20394;-84
2022/03/29 11:37:43;;;;;;;15.07;7.50;;;19.00;99.90;;;;;;5034781;28;20399;-83
2022/03/29 11:40:16;;;;;;;15.07;7.80;;;19.00;99.90;;;;;;5031298;28;20366;-85
2022/03/29 11:42:50;;;;;;;16.40;8.00;;;19.10;99.90;;;;;;5031781;28;20407;-88
2022/03/29 11:45:19;;;;;;;14.57;8.52;;;19.00;99.90;;;;;;5031389;28;20394;-87
2022/03/29 11:48:13;;;;;;;19.77;10.02;;;19.00;99.90;;;;;;5031059;28;20423;-87
2022/03/29 11:50:44;;;;;;;16.83;8.98;;;19.00;99.90;;;;;;5028576;28;20388;-85
2022/03/29 11:53:26;;;;;;;20.13;10.10;;;19.00;99.90;;;;;;5031368;28;20930;-88
2022/03/29 11:56:06;;;;;;;24.10;11.65;;;19.00;99.90;;;;;;5031685;28;20451;-90
2022/03/29 11:58:43;;;;;;;23.13;11.75;;;19.10;99.90;;;;;;5031923;28;20381;-88
2022/03/29 12:01:15;;;;;;;17.15;10.18;;;19.10;99.90;;;;;;5031544;28;20400;-85
2022/03/29 12:03:48;;;;;;;16.23;10.55;;;19.10;99.90;;;;;;5031428;28;20373;-88
2022/03/29 12:06:17;;;;;;;19.42;10.30;;;19.10;99.90;;;;;;5031649;28;20853;-83
2022/03/29 12:08:53;;;;;;;18.75;10.38;;;19.20;99.90;;;;;;5031271;28;20829;-82
2022/03/29 12:11:27;;;;;;;21.13;11.53;;;19.20;99.90;;;;;;5031095;28;20370;-86
2022/03/29 12:14:06;;;;;;;21.20;12.52;;;19.20;99.90;;;;;;5030726;28;20404;-95
2022/03/29 12:16:44;;;;;;;24.23;16.33;;;19.20;99.90;;;;;;5030706;28;20488;-92
2022/03/29 12:19:25;;;;;;;25.60;18.73;;;19.30;99.90;;;;;;5031034;28;20377;-86
2022/03/29 12:21:54;;;;;;;25.75;18.33;;;19.30;99.90;;;;;;5030758;28;20478;-86
2022/03/29 12:24:25;;;;;;;35.33;25.00;;;19.30;99.90;;;;;;5030893;28;20374;-88
2022/03/29 12:27:01;;;;;;;51.95;35.40;;;19.30;99.90;;;;;;5030738;28;20378;-87
2022/03/29 12:29:28;;;;;;;61.50;43.30;;;19.30;99.90;;;;;;5031237;28;20373;-87
2022/03/29 12:31:57;;;;;;;61.63;51.97;;;19.30;99.90;;;;;;5030253;28;20377;-92
2022/03/29 12:34:30;;;;;;;66.30;50.63;;;19.30;99.90;;;;;;5030836;28;20385;-85
2022/03/29 12:36:59;;;;;;;56.58;38.47;;;19.30;99.90;;;;;;5030480;28;20428;-91
2022/03/29 12:39:38;;;;;;;33.30;23.20;;;19.30;99.90;;;;;;5029763;28;20373;-84
2022/03/29 12:42:13;;;;;;;30.88;18.70;;;19.30;99.90;;;;;;5030106;28;20382;-89
2022/03/29 12:44:48;;;;;;;25.85;14.52;;;19.30;99.90;;;;;;5012488;28;20385;-86
2022/03/29 12:47:17;;;;;;;21.25;11.50;;;19.30;99.90;;;;;;5031572;28;20453;-87
2022/03/29 12:49:46;;;;;;;21.73;9.43;;;19.20;99.90;;;;;;5031340;28;20435;-90
2022/03/29 12:52:14;;;;;;;18.20;7.07;;;19.20;99.90;;;;;;5033763;28;20449;-90
2022/03/29 12:54:46;;;;;;;16.15;6.25;;;19.20;99.90;;;;;;5046443;28;20416;-88
2022/03/29 12:57:19;;;;;;;14.23;5.90;;;19.20;99.90;;;;;;5022539;28;20921;-90
2022/03/29 12:59:49;;;;;;;14.27;5.85;;;19.20;99.90;;;;;;5030915;28;20411;-93
2022/03/29 13:02:21;;;;;;;13.97;5.63;;;19.20;99.90;;;;;;5030844;28;20885;-91
2022/03/29 13:04:49;;;;;;;14.98;5.50;;;19.20;99.90;;;;;;5033232;28;20401;-86
2022/03/29 13:07:59;;;;;;;16.35;5.85;;;19.10;99.90;;;;;;5031381;28;20415;-84
2022/03/29 13:10:32;;;;;;;13.70;5.25;;;19.10;99.90;;;;;;5029798;28;20373;-92